Time;durP1;ratioP1;P1;durP2;ratioP2;P2;SDS_P1;SDS_P2;PMS_P1;PMS_P2;Temp;Humidity;BMP_temperature;BMP_pressure;BME280_temperature;BME280_humidity;BME280_pressure;Samples;Min_cycle;Max_cycle;Signal;HPM_P1;HPM_P2
2021/12/19 00:13:09;;;;;;;5.18;2.10;;;;;;;2.52;100.00;102869.53;10391020;28;20397;-90
2021/12/19 00:18:09;;;;;;;10.40;3.88;;;;;;;2.41;100.00;102982.06;10401516;28;20496;-90
2021/12/19 00:23:11;;;;;;;5.32;2.45;;;;;;;6.03;100.00;103544.03;10400859;28;20056;-85
2021/12/19 00:28:11;;;;;;;18.25;5.93;;;;;;;5.96;100.00;103586.69;10367126;28;20080;-85
2021/12/19 00:33:12;;;;;;;9.48;3.13;;;;;;;4.16;100.00;103278.00;10398266;28;20606;-85
2021/12/19 00:38:12;;;;;;;13.30;4.28;;;;;;;1.65;100.00;102733.13;10383057;28;20366;-90
2021/12/19 00:43:23;;;;;;;14.48;5.13;;;;;;;1.11;100.00;102688.63;10368225;28;20033;-85
2021/12/19 00:48:24;;;;;;;12.48;5.38;;;;;;;2.95;100.00;103021.19;10369267;28;20095;-85
2021/12/19 00:53:24;;;;;;;18.10;7.10;;;;;;;4.02;100.00;103035.91;10398330;28;20037;-85
2021/12/19 00:58:25;;;;;;;17.50;7.30;;;;;;;2.97;100.00;102989.22;10381432;28;20068;-85
2021/12/19 01:03:26;;;;;;;22.65;8.65;;;;;;;2.34;100.00;102915.72;10364766;28;20485;-85
2021/12/19 01:08:26;;;;;;;20.25;9.40;;;;;;;1.73;100.00;102798.41;10365168;28;20041;-85
2021/12/19 01:13:27;;;;;;;17.95;9.43;;;;;;;5.19;100.00;103277.59;10381675;28;20037;-86
2021/12/19 01:18:28;;;;;;;25.13;9.82;;;;;;;0.52;100.00;102485.47;10381059;28;20072;-86
2021/12/19 01:23:28;;;;;;;20.05;8.52;;;;;;;5.57;100.00;103395.69;10380823;28;20207;-85
2021/12/19 01:28:29;;;;;;;23.67;7.95;;;;;;;2.41;100.00;102867.88;10366102;28;20132;-86
2021/12/19 01:33:29;;;;;;;13.23;6.03;;;;;;;2.14;100.00;102798.94;10421550;28;20052;-85
2021/12/19 01:38:30;;;;;;;16.13;6.60;;;;;;;3.51;100.00;103102.84;10365004;28;20030;-89
2021/12/19 01:43:31;;;;;;;9.40;3.88;;;;;;;1.85;100.00;102771.91;10399666;28;20473;-91
2021/12/19 01:48:31;;;;;;;6.40;2.60;;;;;;;1.71;100.00;102816.69;10398752;28;20052;-91
2021/12/19 01:53:32;;;;;;;4.45;1.55;;;;;;;4.02;100.00;103109.50;10399527;28;20073;-90
2021/12/19 01:58:34;;;;;;;5.60;1.65;;;;;;;2.01;100.00;102768.56;10366383;28;20041;-90
2021/12/19 02:03:36;;;;;;;1.85;0.90;;;;;;;1.63;100.00;102737.84;10366257;28;20042;-91
2021/12/19 02:08:36;;;;;;;2.33;0.65;;;;;;;3.13;100.00;103096.59;10398412;28;20123;-90
2021/12/19 02:13:39;;;;;;;4.20;0.98;;;;;;;4.39;100.00;103323.91;10381314;28;20077;-91
2021/12/19 02:18:40;;;;;;;3.47;0.70;;;;;;;1.54;100.00;102741.47;10399673;28;20033;-90
2021/12/19 02:23:40;;;;;;;4.60;0.40;;;;;;;0.48;100.00;102641.22;10372757;28;20046;-90
2021/12/19 02:28:41;;;;;;;3.00;0.50;;;;;;;2.24;100.00;102860.53;10389310;28;20049;-90
2021/12/19 02:33:52;;;;;;;1.08;0.47;;;;;;;3.35;100.00;103041.75;10406203;28;20037;-90
2021/12/19 02:49:28;;;;;;;5.47;0.73;;;;;;;2.59;100.00;102909.56;10393845;28;20042;-90
2021/12/19 02:54:29;;;;;;;0.80;0.40;;;;;;;0.03;100.00;102529.94;10389343;28;20112;-91
2021/12/19 02:59:31;;;;;;;2.60;0.80;;;;;;;2.98;100.00;102922.94;10404542;28;20091;-91
2021/12/19 03:04:32;;;;;;;6.93;2.05;;;;;;;4.01;100.00;103143.19;10387953;28;20440;-91
2021/12/19 03:10:34;;;;;;;9.05;2.70;;;;;;;0.77;100.00;102600.50;10403845;28;20119;-90
2021/12/19 03:20:15;;;;;;;9.02;2.15;;;;;;;0.37;100.00;102676.59;10398343;28;20046;-91
2021/12/19 03:25:16;;;;;;;8.77;2.90;;;;;;;1.27;100.00;102716.00;10313611;28;20053;-86
2021/12/19 03:30:17;;;;;;;2.97;1.13;;;;;;;1.98;100.00;102796.84;10313242;28;20435;-86
2021/12/19 03:35:18;;;;;;;5.10;1.95;;;;;;;0.96;100.00;102626.72;10344936;28;20030;-91
2021/12/19 03:40:24;;;;;;;7.82;2.03;;;;;;;2.52;100.00;102886.72;10329661;28;20069;-91
2021/12/19 03:45:25;;;;;;;11.13;3.30;;;;;;;2.63;100.00;102905.53;10330900;28;20375;-91
2021/12/19 03:50:25;;;;;;;8.25;4.00;;;;;;;3.29;100.00;103129.47;10313560;28;20069;-91
2021/12/19 03:55:26;;;;;;;9.80;4.00;;;;;;;1.51;100.00;102733.59;10329411;28;20410;-91
2021/12/19 04:00:28;;;;;;;13.43;4.90;;;;;;;1.36;100.00;102643.69;10329803;28;20072;-91
2021/12/19 04:05:28;;;;;;;9.68;4.53;;;;;;;0.65;100.00;102543.91;10313134;28;20045;-91
2021/12/19 04:10:29;;;;;;;8.18;3.63;;;;;;;2.25;100.00;102932.91;10313318;28;20030;-92
2021/12/19 04:15:30;;;;;;;14.75;3.65;;;;;;;2.75;100.00;102823.72;10312273;28;20517;-91
2021/12/19 04:20:30;;;;;;;12.98;3.28;;;;;;;2.21;100.00;102805.47;10312438;28;20197;-92
2021/12/19 04:25:31;;;;;;;10.85;3.42;;;;;;;1.70;100.00;102825.00;10312849;28;20442;-91
2021/12/19 04:30:31;;;;;;;13.45;4.35;;;;;;;-0.80;100.00;102388.84;10328527;28;20044;-91
2021/12/19 04:35:34;;;;;;;16.83;5.05;;;;;;;1.04;100.00;102573.59;10311411;28;20061;-86
2021/12/19 04:40:49;;;;;;;20.25;6.07;;;;;;;3.96;100.00;103052.88;10341648;28;20038;-85
2021/12/19 05:02:07;;;;;;;20.83;6.15;;;;;;;2.70;100.00;102817.91;10332616;28;20065;-90
2021/12/19 05:17:48;;;;;;;27.10;8.68;;;;;;;0.74;100.00;102464.38;10331267;28;20049;-91
2021/12/19 05:22:51;;;;;;;24.58;7.15;;;;;;;-0.61;100.00;102189.50;10310887;28;20069;-91
2021/12/19 05:27:55;;;;;;;34.15;9.00;;;;;;;2.40;100.00;102868.91;10326839;28;20494;-91
2021/12/19 05:32:56;;;;;;;24.80;8.25;;;;;;;3.52;100.00;102845.84;10327498;28;20052;-91
2021/12/19 05:48:35;;;;;;;22.40;8.93;;;;;;;3.41;100.00;102855.97;10331271;28;20068;-91
2021/12/19 05:53:35;;;;;;;29.02;9.25;;;;;;;2.21;100.00;102736.66;10313200;28;20431;-91
2021/12/19 05:58:37;;;;;;;29.67;8.77;;;;;;;2.65;100.00;102814.78;10334557;28;20042;-91
2021/12/19 06:03:38;;;;;;;24.48;8.85;;;;;;;3.08;100.00;102780.47;10333706;28;20026;-91
2021/12/19 06:08:38;;;;;;;27.25;9.60;;;;;;;1.47;100.00;102558.47;10331563;28;20517;-86
2021/12/19 06:13:39;;;;;;;26.92;9.23;;;;;;;4.43;100.00;103098.94;10331425;28;20116;-85
2021/12/19 06:18:40;;;;;;;34.13;8.77;;;;;;;2.07;100.00;102696.44;10331847;28;20072;-85
2021/12/19 06:23:40;;;;;;;27.50;9.35;;;;;;;1.80;100.00;102658.31;10369131;28;20073;-85
2021/12/19 06:28:41;;;;;;;27.83;9.75;;;;;;;0.75;100.00;102406.47;10387502;28;20108;-85
2021/12/19 06:33:41;;;;;;;32.80;7.90;;;;;;;1.85;100.00;102644.25;10370862;28;20033;-85
2021/12/19 06:38:42;;;;;;;22.23;7.78;;;;;;;4.72;100.00;103013.19;10393461;28;20033;-85
2021/12/19 06:43:43;;;;;;;27.30;6.72;;;;;;;3.50;100.00;102984.03;10372662;28;20026;-91
2021/12/19 06:48:43;;;;;;;17.00;4.80;;;;;;;3.21;100.00;102971.47;10389425;28;20120;-91
2021/12/19 06:53:44;;;;;;;19.38;5.88;;;;;;;1.54;100.00;102548.72;10388474;28;20061;-90
2021/12/19 06:58:45;;;;;;;23.63;4.28;;;;;;;0.01;100.00;102213.28;10387984;28;20026;-91
2021/12/19 07:03:45;;;;;;;16.30;3.55;;;;;;;0.53;100.00;102441.09;10388430;28;20037;-91
2021/12/19 07:08:46;;;;;;;18.10;4.65;;;;;;;4.19;100.00;103132.31;10387215;28;20045;-85
2021/12/19 07:13:46;;;;;;;24.35;3.63;;;;;;;2.17;100.00;102786.91;10370204;28;20425;-85
2021/12/19 07:18:47;;;;;;;10.50;4.22;;;;;;;1.60;100.00;102575.28;10402918;28;20124;-85
2021/12/19 07:23:47;;;;;;;17.75;3.90;;;;;;;3.19;100.00;102720.38;10385552;28;20132;-90
2021/12/19 07:28:49;;;;;;;19.55;3.40;;;;;;;3.62;100.00;102955.53;10371228;28;20045;-91
2021/12/19 07:33:50;;;;;;;17.55;4.03;;;;;;;-0.31;100.00;102214.59;10387296;28;20116;-90
2021/12/19 07:39:01;;;;;;;13.85;3.03;;;;;;;1.58;100.00;102534.69;10403943;28;20033;-85
2021/12/19 07:44:01;;;;;;;16.58;3.78;;;;;;;0.82;100.00;102407.56;10387809;28;20025;-84
2021/12/19 07:49:02;;;;;;;18.55;3.88;;;;;;;1.68;100.00;102674.97;10384566;28;20065;-85
2021/12/19 07:54:02;;;;;;;21.88;4.72;;;;;;;1.75;100.00;102513.97;10400657;28;20053;-85
2021/12/19 07:59:03;;;;;;;18.45;4.35;;;;;;;5.65;100.00;103188.03;10372955;28;20091;-90
2021/12/19 08:04:04;;;;;;;17.40;3.90;;;;;;;2.04;100.00;102509.31;10369702;28;20397;-91
2021/12/19 08:09:09;;;;;;;20.33;4.97;;;;;;;3.42;100.00;102838.59;10370148;28;20032;-91
2021/12/19 08:14:11;;;;;;;25.17;5.93;;;;;;;4.66;100.00;103091.09;10376385;28;20078;-84
2021/12/19 08:19:11;;;;;;;29.02;5.28;;;;;;;2.10;100.00;102686.13;10366539;28;20393;-85
2021/12/19 08:24:13;;;;;;;18.20;4.63;;;;;;;5.37;100.00;103199.16;10366669;28;20037;-84
2021/12/19 08:29:14;;;;;;;20.63;4.68;;;;;;;2.76;100.00;102663.09;10399606;28;20045;-85
2021/12/19 08:34:15;;;;;;;24.25;6.28;;;;;;;3.32;100.00;102772.50;10403808;28;20033;-85
2021/12/19 08:39:15;;;;;;;25.30;4.07;;;;;;;1.61;100.00;102461.09;10424224;28;20127;-89
2021/12/19 08:44:16;;;;;;;22.45;5.53;;;;;;;1.79;100.00;102492.81;10408063;28;20064;-89
2021/12/19 08:49:16;;;;;;;26.08;4.45;;;;;;;0.01;100.00;102299.91;10424150;28;20033;-89
2021/12/19 08:54:17;;;;;;;22.70;4.57;;;;;;;3.73;100.00;102859.94;10399123;28;20516;-89
2021/12/19 08:59:17;;;;;;;15.80;3.40;;;;;;;-0.14;100.00;102241.88;10388984;28;20035;-89
2021/12/19 09:04:18;;;;;;;16.35;4.03;;;;;;;2.94;100.00;102780.06;10402428;28;20075;-86
2021/12/19 09:09:18;;;;;;;19.27;4.32;;;;;;;2.28;100.00;102552.97;10387477;28;20060;-86
2021/12/19 09:14:19;;;;;;;22.92;4.20;;;;;;;2.79;100.00;102714.47;10397936;28;20079;-87
2021/12/19 09:19:21;;;;;;;13.68;2.85;;;;;;;3.37;100.00;102789.22;10418062;28;20080;-86
2021/12/19 09:24:21;;;;;;;30.83;5.20;;;;;;;2.37;100.00;102605.53;10415559;28;20124;-85
2021/12/19 09:29:26;;;;;;;23.13;4.53;;;;;;;2.85;100.00;102676.75;10382053;28;20143;-85
2021/12/19 09:34:27;;;;;;;17.75;3.47;;;;;;;2.66;100.00;102632.41;10417728;28;20116;-85
2021/12/19 09:39:27;;;;;;;23.52;4.97;;;;;;;0.15;100.00;102220.88;10371837;28;20056;-85
2021/12/19 09:44:29;;;;;;;19.67;4.65;;;;;;;1.49;100.00;102418.91;10396123;28;20128;-85
2021/12/19 09:49:32;;;;;;;14.32;3.90;;;;;;;1.11;100.00;102353.09;10426095;28;20120;-88
2021/12/19 09:54:35;;;;;;;27.88;4.38;;;;;;;1.10;100.00;102426.53;10364284;28;20036;-85
2021/12/19 09:59:35;;;;;;;15.55;3.60;;;;;;;0.69;100.00;102179.38;10414434;28;20025;-89
2021/12/19 10:04:45;;;;;;;21.00;4.63;;;;;;;1.51;100.00;102418.75;10397405;28;20033;-91
2021/12/19 10:09:56;;;;;;;19.17;3.78;;;;;;;3.73;100.00;102652.88;10365185;28;20052;-91
2021/12/19 10:14:57;;;;;;;16.08;2.90;;;;;;;2.14;100.00;102510.91;10397909;28;20044;-86
2021/12/19 10:20:03;;;;;;;35.00;3.92;;;;;;;0.46;100.00;102255.75;10362281;28;20043;-86
2021/12/19 10:25:24;;;;;;;16.52;2.90;;;;;;;2.94;100.00;102556.94;10324691;28;20046;-86
2021/12/19 10:30:31;;;;;;;9.70;2.22;;;;;;;2.20;100.00;102463.22;10342118;28;20461;-90
2021/12/19 10:35:40;;;;;;;13.35;2.13;;;;;;;1.85;100.00;102345.53;10349091;28;20405;-91
2021/12/19 10:40:53;;;;;;;11.60;2.20;;;;;;;1.50;100.00;102320.19;10326213;28;20057;-86
2021/12/19 10:45:56;;;;;;;16.23;2.33;;;;;;;4.52;100.00;102757.00;10331234;28;20033;-86
2021/12/19 10:50:59;;;;;;;19.35;3.05;;;;;;;6.52;100.00;102997.00;10333040;28;20030;-86
2021/12/19 10:56:02;;;;;;;14.50;3.10;;;;;;;4.36;100.00;102778.78;10387119;28;20034;-86
2021/12/19 11:01:14;;;;;;;18.50;3.00;;;;;;;3.94;100.00;102613.44;10356332;28;20377;-91
2021/12/19 11:06:31;;;;;;;20.40;3.67;;;;;;;3.73;100.00;102467.66;10356196;28;20124;-91
2021/12/19 11:11:35;;;;;;;18.00;2.67;;;;;;;2.63;100.00;102415.22;10371732;28;20034;-91
2021/12/19 11:16:36;;;;;;;12.90;2.50;;;;;;;6.69;100.00;102953.16;10370697;28;20131;-91
2021/12/19 11:21:37;;;;;;;17.30;2.63;;;;;;;3.37;100.00;102537.88;10351359;28;20120;-86
2021/12/19 11:26:38;;;;;;;17.60;2.97;;;;;;;4.84;100.00;102644.31;10330490;28;20410;-91
2021/12/19 11:31:39;;;;;;;19.33;3.00;;;;;;;5.23;100.00;102872.06;10346579;28;20045;-90
2021/12/19 11:36:42;;;;;;;16.08;2.67;;;;;;;0.68;100.00;102061.13;10312957;28;20550;-85
2021/12/19 11:42:01;;;;;;;19.73;3.80;;;;;;;6.53;100.00;102878.34;10330712;28;20394;-84
2021/12/19 11:47:08;;;;;;;21.70;3.13;;;;;;;4.46;100.00;102588.56;10382230;28;20128;-92
2021/12/19 11:52:26;;;;;;;20.95;4.00;;;;;;;5.46;100.00;102681.84;10312744;28;20498;-91
2021/12/19 11:57:27;;;;;;;23.33;5.05;;;;;;;1.44;100.00;102243.97;10328550;28;20034;-90
2021/12/19 12:02:30;;;;;;;24.60;3.72;;;;;;;0.19;100.00;101840.41;10311972;28;20041;-87
2021/12/19 12:08:16;;;;;;;17.90;3.63;;;;;;;1.66;100.00;102202.72;10345513;28;20045;-91
2021/12/19 12:13:52;;;;;;;24.80;4.25;;;;;;;6.90;100.00;103010.91;10305447;28;20049;-87
2021/12/19 12:19:00;;;;;;;21.60;2.65;;;;;;;-0.30;100.00;101752.69;10314187;28;20188;-87
2021/12/19 12:24:05;;;;;;;14.85;3.08;;;;;;;0.71;100.00;102022.88;10343445;28;20050;-92
2021/12/19 12:29:06;;;;;;;13.73;2.53;;;;;;;1.65;100.00;102029.97;10312671;28;20045;-94
2021/12/19 12:34:08;;;;;;;13.25;2.50;;;;;;;2.75;100.00;102247.13;10326631;28;20038;-85
2021/12/19 12:39:27;;;;;;;16.80;2.00;;;;;;;6.92;100.00;102899.31;10319392;28;20440;-87
2021/12/19 12:44:27;;;;;;;11.70;1.77;;;;;;;4.32;100.00;102543.78;10335008;28;20037;-86
2021/12/19 12:49:34;;;;;;;12.70;1.88;;;;;;;4.61;100.00;102625.06;10347922;28;20038;-87
2021/12/19 12:54:37;;;;;;;14.45;1.83;;;;;;;4.99;100.00;102595.31;10325072;28;20039;-86
2021/12/19 12:59:40;;;;;;;11.40;2.60;;;;;;;3.51;100.00;102381.19;10353858;28;20060;-92
2021/12/19 13:04:48;;;;;;;15.80;3.30;;;;;;;2.61;100.00;102178.81;10342577;28;20161;-91
2021/12/19 13:09:57;;;;;;;17.00;2.85;;;;;;;2.76;100.00;102360.34;10329806;28;20061;-91
2021/12/19 13:15:07;;;;;;;21.45;2.38;;;;;;;0.40;100.00;101787.66;10310837;28;20049;-92
2021/12/19 13:20:21;;;;;;;22.40;1.88;;;;;;;4.17;100.00;102510.03;10310305;28;20500;-86
2021/12/19 13:25:42;;;;;;;10.50;1.98;;;;;;;0.45;100.00;101725.69;10328074;28;20041;-86
2021/12/19 13:30:43;;;;;;;18.80;3.10;;;;;;;1.30;100.00;101874.59;10363716;28;20103;-86
2021/12/19 13:35:48;;;;;;;14.43;2.22;;;;;;;1.44;100.00;101880.34;10326907;28;20041;-92
2021/12/19 13:40:55;;;;;;;16.40;2.60;;;;;;;2.77;100.00;102280.44;10310140;28;20437;-91
2021/12/19 13:46:10;;;;;;;14.88;2.33;;;;;;;3.78;100.00;102317.31;10323871;28;20095;-91
2021/12/19 13:51:13;;;;;;;22.45;3.03;;;;;;;2.99;100.00;102206.31;10326002;28;20125;-91
2021/12/19 13:56:16;;;;;;;12.77;2.50;;;;;;;2.72;100.00;102201.25;10324603;28;20041;-92
2021/12/19 14:01:24;;;;;;;12.05;2.47;;;;;;;1.93;100.00;102035.09;10305926;28;20030;-87
2021/12/19 14:06:31;;;;;;;13.98;3.17;;;;;;;5.57;100.00;102548.63;10323695;28;20038;-86
2021/12/19 14:11:32;;;;;;;13.43;2.28;;;;;;;2.87;100.00;102226.72;10340782;28;20041;-91
2021/12/19 14:16:38;;;;;;;14.98;2.17;;;;;;;2.20;100.00;102056.50;10312371;28;20037;-87
2021/12/19 14:21:47;;;;;;;20.35;3.33;;;;;;;2.82;100.00;102152.97;10316429;28;20181;-87
2021/12/19 14:27:02;;;;;;;27.15;3.80;;;;;;;4.26;100.00;102574.47;10316322;28;20048;-92
2021/12/19 14:32:17;;;;;;;13.77;2.05;;;;;;;1.93;100.00;102252.38;10315421;28;20524;-87
2021/12/19 14:37:21;;;;;;;16.55;2.15;;;;;;;1.94;100.00;102126.41;10329875;28;20413;-87
2021/12/19 14:42:30;;;;;;;9.27;2.05;;;;;;;3.20;100.00;102373.69;10369145;28;20040;-92
2021/12/19 14:47:41;;;;;;;17.00;2.28;;;;;;;6.52;100.00;102766.31;10358256;28;20112;-92
2021/12/19 14:53:08;;;;;;;11.30;2.30;;;;;;;5.07;100.00;102531.66;10371653;28;20092;-92
2021/12/19 14:58:08;;;;;;;9.30;1.73;;;;;;;3.79;100.00;102436.16;10371064;28;20033;-92
2021/12/19 15:03:09;;;;;;;21.60;2.85;;;;;;;-0.91;100.00;101735.56;10352873;28;20053;-87
2021/12/19 15:08:13;;;;;;;14.45;1.90;;;;;;;4.57;100.00;102483.75;10345768;28;20129;-87
2021/12/19 15:13:21;;;;;;;16.20;1.58;;;;;;;5.22;100.00;102550.84;10351193;28;20088;-87
2021/12/19 15:18:22;;;;;;;12.68;2.72;;;;;;;3.79;100.00;102505.13;10342653;28;20549;-86
2021/12/19 15:23:23;;;;;;;13.23;1.88;;;;;;;3.47;100.00;102364.31;10359526;28;20037;-87
2021/12/19 15:28:24;;;;;;;17.90;2.03;;;;;;;4.33;100.00;102533.72;10408961;28;20037;-91
2021/12/19 15:33:25;;;;;;;9.35;1.48;;;;;;;3.59;100.00;102488.22;10386884;28;20034;-91
2021/12/19 15:38:25;;;;;;;16.08;1.63;;;;;;;3.03;100.00;102319.25;10370311;28;20029;-91
2021/12/19 15:43:26;;;;;;;8.35;1.40;;;;;;;1.04;100.00;102096.25;10406845;28;20039;-91
2021/12/19 15:48:26;;;;;;;10.25;1.55;;;;;;;2.46;100.00;102311.00;10409997;28;20041;-92
2021/12/19 15:53:27;;;;;;;10.82;2.13;;;;;;;2.10;100.00;102250.56;10388074;28;20038;-91
2021/12/19 15:58:28;;;;;;;12.73;2.88;;;;;;;0.52;100.00;101826.16;10368402;28;20131;-91
2021/12/19 16:03:28;;;;;;;10.48;2.00;;;;;;;1.11;100.00;102076.44;10384933;28;20069;-90
2021/12/19 16:08:29;;;;;;;9.50;1.95;;;;;;;1.83;100.00;102080.59;10368157;28;20091;-91
2021/12/19 16:13:29;;;;;;;13.98;2.50;;;;;;;0.12;100.00;101795.19;10384444;28;20176;-91
2021/12/19 16:18:30;;;;;;;19.17;2.53;;;;;;;2.26;100.00;102086.75;10384172;28;20060;-92
2021/12/19 16:23:31;;;;;;;10.18;1.65;;;;;;;1.71;100.00;102021.16;10396235;28;20199;-87
2021/12/19 16:28:32;;;;;;;10.77;2.05;;;;;;;3.13;100.00;102312.78;10380764;28;20056;-87
2021/12/19 16:33:32;;;;;;;17.10;2.05;;;;;;;3.40;100.00;102271.59;10381523;28;20035;-91
2021/12/19 16:38:33;;;;;;;9.95;2.05;;;;;;;2.76;100.00;102341.31;10367545;28;20116;-91
2021/12/19 16:43:54;;;;;;;7.82;2.33;;;;;;;0.11;100.00;101710.41;10395132;28;20034;-92
2021/12/19 16:48:55;;;;;;;12.90;2.90;;;;;;;-0.01;100.00;101738.78;10399232;28;20128;-92
2021/12/19 16:53:56;;;;;;;11.80;2.28;;;;;;;0.87;100.00;101868.41;10398746;28;20059;-90
2021/12/19 16:58:56;;;;;;;12.10;2.72;;;;;;;2.07;100.00;102197.44;10371026;28;20072;-90
2021/12/19 17:03:57;;;;;;;9.63;1.88;;;;;;;-1.00;100.00;101472.50;10367930;28;20168;-91
2021/12/19 17:08:58;;;;;;;18.02;3.90;;;;;;;4.70;100.00;102712.38;10366938;28;20081;-90
2021/12/19 17:14:11;;;;;;;16.05;3.55;;;;;;;3.28;100.00;102300.19;10383593;28;20555;-90
2021/12/19 17:19:12;;;;;;;17.35;2.53;;;;;;;2.83;100.00;102283.38;10370144;28;20033;-90
2021/12/19 17:24:13;;;;;;;16.65;2.55;;;;;;;1.89;100.00;102132.34;10371400;28;20048;-86
2021/12/19 17:29:14;;;;;;;21.10;3.80;;;;;;;2.38;100.00;102107.13;10413258;28;20489;-86
2021/12/19 17:34:14;;;;;;;39.15;6.40;;;;;;;3.68;100.00;102338.44;10385116;28;20474;-90
2021/12/19 17:39:20;;;;;;;25.90;4.43;;;;;;;3.61;100.00;102320.06;10367023;28;20060;-92
2021/12/19 17:44:21;;;;;;;20.73;4.65;;;;;;;1.84;100.00;102202.63;10368423;28;20064;-90
2021/12/19 17:49:22;;;;;;;18.60;3.63;;;;;;;1.49;100.00;102123.09;10385582;28;20501;-90
2021/12/19 17:54:22;;;;;;;23.10;4.28;;;;;;;5.58;100.00;102831.75;10374615;28;20105;-91
2021/12/19 17:59:23;;;;;;;21.38;3.83;;;;;;;3.72;100.00;102474.13;10374680;28;20045;-91
2021/12/19 18:04:27;;;;;;;34.53;5.35;;;;;;;4.68;100.00;102450.63;10378555;28;20051;-93
2021/12/19 18:09:30;;;;;;;25.73;6.05;;;;;;;2.05;100.00;102232.06;10399228;28;20037;-87
2021/12/19 18:14:31;;;;;;;27.40;5.40;;;;;;;1.97;100.00;102104.38;10411006;28;20037;-87
2021/12/19 18:19:32;;;;;;;29.40;5.97;;;;;;;2.11;100.00;102168.03;10427271;28;20076;-90
2021/12/19 18:24:32;;;;;;;31.65;4.65;;;;;;;1.25;100.00;102036.16;10393000;28;20040;-90
2021/12/19 18:29:36;;;;;;;32.38;4.82;;;;;;;0.43;100.00;101900.28;10394274;28;20119;-91
2021/12/19 18:34:41;;;;;;;38.33;5.32;;;;;;;3.38;100.00;102392.59;10392818;28;20536;-87
2021/12/19 18:39:48;;;;;;;32.47;5.78;;;;;;;4.43;100.00;102449.84;10414012;28;20389;-87
2021/12/19 18:44:56;;;;;;;30.92;4.95;;;;;;;6.08;100.00;102841.56;10393391;28;20128;-90
2021/12/19 18:50:20;;;;;;;35.05;6.20;;;;;;;2.83;100.00;102432.09;10389267;28;20477;-87
2021/12/19 19:00:42;;;;;;;34.45;4.93;;;;;;;-0.05;100.00;101870.06;10403152;28;20034;-91
2021/12/19 19:05:46;;;;;;;32.17;6.25;;;;;;;4.62;100.00;102555.81;10406402;28;20029;-89
2021/12/19 19:10:47;;;;;;;26.33;5.80;;;;;;;2.48;100.00;102189.34;10393499;28;20477;-89
2021/12/19 19:15:47;;;;;;;32.35;4.93;;;;;;;2.46;100.00;102234.00;10411796;28;20086;-87
2021/12/19 19:20:48;;;;;;;23.17;3.58;;;;;;;3.36;100.00;102515.25;10391029;28;20029;-89
2021/12/19 19:25:48;;;;;;;30.77;5.28;;;;;;;3.37;100.00;102555.09;10380015;28;20520;-87
2021/12/19 19:30:49;;;;;;;23.63;5.03;;;;;;;1.20;100.00;102037.50;10392024;28;20048;-90
2021/12/19 19:35:51;;;;;;;35.92;5.10;;;;;;;3.20;100.00;102279.28;10388035;28;20107;-88
2021/12/19 19:41:15;;;;;;;28.33;5.63;;;;;;;1.78;100.00;102041.22;10406062;28;20033;-85
2021/12/19 19:51:37;;;;;;;48.75;6.47;;;;;;;2.88;100.00;102391.66;10428051;28;20061;-88
2021/12/19 19:56:38;;;;;;;33.20;6.40;;;;;;;2.47;100.00;102299.09;10377814;28;20125;-85
2021/12/19 20:01:39;;;;;;;36.78;6.68;;;;;;;4.21;100.00;102583.13;10366840;28;20102;-87
2021/12/19 20:06:39;;;;;;;27.17;5.78;;;;;;;4.43;100.00;102668.03;10380261;28;20157;-88
2021/12/19 20:11:40;;;;;;;22.02;4.53;;;;;;;3.33;100.00;102390.38;10373333;28;20032;-88
2021/12/19 20:16:40;;;;;;;34.78;5.32;;;;;;;1.33;100.00;102269.53;10367435;28;20056;-85
2021/12/19 20:21:41;;;;;;;31.08;6.03;;;;;;;2.19;100.00;102290.31;10384541;28;20510;-85
2021/12/19 20:26:42;;;;;;;27.40;5.30;;;;;;;2.78;100.00;102386.34;10316621;28;20498;-85
2021/12/19 20:31:42;;;;;;;30.67;4.50;;;;;;;3.54;100.00;102572.31;10352349;28;20057;-88
2021/12/19 20:36:45;;;;;;;33.60;6.70;;;;;;;1.64;100.00;102267.19;10326121;28;20030;-84
2021/12/19 20:41:46;;;;;;;35.03;6.40;;;;;;;1.44;100.00;102195.13;10341522;28;20083;-84
2021/12/19 20:46:49;;;;;;;35.42;5.15;;;;;;;4.13;100.00;102604.94;10343053;28;20045;-85
2021/12/19 20:51:50;;;;;;;33.60;6.43;;;;;;;1.12;100.00;102104.44;10323248;28;20038;-84
2021/12/19 20:56:51;;;;;;;29.30;4.57;;;;;;;2.42;100.00;102402.03;10342454;28;20083;-85
2021/12/19 21:01:52;;;;;;;32.28;5.82;;;;;;;2.41;100.00;102346.81;10341454;28;20095;-88
2021/12/19 21:06:53;;;;;;;26.10;4.97;;;;;;;2.71;100.00;102388.06;10336462;28;20371;-88
2021/12/19 21:11:56;;;;;;;28.67;4.57;;;;;;;3.44;100.00;102539.78;10332219;28;20125;-88
2021/12/19 21:22:16;;;;;;;24.50;4.03;;;;;;;3.84;100.00;102660.78;10348390;28;20136;-84
2021/12/19 21:27:18;;;;;;;34.40;4.72;;;;;;;3.20;100.00;102516.09;10361378;28;20041;-88
2021/12/19 21:32:20;;;;;;;31.20;5.35;;;;;;;0.02;100.00;101913.56;10364386;28;20104;-84
2021/12/19 21:42:39;;;;;;;29.48;5.90;;;;;;;5.28;100.00;102790.47;10369054;28;20034;-87
2021/12/19 21:47:40;;;;;;;26.85;6.30;;;;;;;2.27;100.00;102305.81;10347936;28;20065;-84
2021/12/19 21:52:43;;;;;;;35.22;4.93;;;;;;;3.08;100.00;102424.00;10364451;28;20050;-88
2021/12/19 21:57:44;;;;;;;33.67;6.18;;;;;;;0.97;100.00;102053.50;10348868;28;20498;-85
2021/12/19 22:02:44;;;;;;;29.27;4.65;;;;;;;4.38;100.00;102591.31;10363940;28;20038;-84
2021/12/19 22:07:48;;;;;;;33.92;4.07;;;;;;;1.83;100.00;102249.78;10348008;28;20084;-83
2021/12/19 22:12:56;;;;;;;36.90;6.50;;;;;;;3.64;100.00;102534.91;10380021;28;20037;-84
2021/12/19 22:18:02;;;;;;;26.92;4.68;;;;;;;1.32;100.00;102077.88;10364959;28;20435;-83
2021/12/19 22:23:03;;;;;;;;;;;;;;;5.13;100.00;102718.47;10359266;28;20572;-89
2021/12/19 22:28:04;;;;;;;24.95;4.20;;;;;;;1.08;100.00;102146.44;10381418;28;19917;-84
2021/12/19 22:33:06;;;;;;;31.55;5.20;;;;;;;4.40;100.00;102660.16;10363645;28;20533;-84
2021/12/19 22:38:06;;;;;;;32.17;6.30;;;;;;;0.70;100.00;102107.88;10353141;28;20042;-84
2021/12/19 22:43:07;;;;;;;29.50;5.15;;;;;;;3.90;100.00;102533.88;10387245;28;20486;-84
2021/12/19 22:48:07;;;;;;;30.02;5.05;;;;;;;4.82;100.00;102762.84;10370795;28;20132;-84
2021/12/19 22:53:08;;;;;;;31.90;5.85;;;;;;;3.19;100.00;102499.91;10371192;28;20072;-84
2021/12/19 22:58:09;;;;;;;30.90;4.18;;;;;;;4.30;100.00;102624.03;10387248;28;20506;-84
2021/12/19 23:03:10;;;;;;;26.02;5.50;;;;;;;0.85;100.00;102287.09;10354298;28;20033;-84
2021/12/19 23:08:11;;;;;;;32.20;4.93;;;;;;;2.54;100.00;102334.63;10354066;28;20041;-84
2021/12/19 23:13:16;;;;;;;24.52;3.80;;;;;;;2.82;100.00;102395.03;10354051;28;20124;-84
2021/12/19 23:18:17;;;;;;;24.33;5.97;;;;;;;0.83;100.00;102202.34;10370788;28;20049;-84
2021/12/19 23:23:17;;;;;;;28.25;6.47;;;;;;;4.15;100.00;102608.34;10353374;28;20579;-84
2021/12/19 23:28:18;;;;;;;27.75;5.68;;;;;;;3.23;100.00;102517.59;10369790;28;20136;-90
2021/12/19 23:49:03;;;;;;;19.92;4.85;;;;;;;0.25;100.00;102193.72;10372944;28;20176;-84
2021/12/19 23:54:03;;;;;;;22.75;4.80;;;;;;;0.19;100.00;102162.69;10360766;28;20528;-84
2021/12/19 23:59:04;;;;;;;25.02;4.05;;;;;;;-1.57;100.00;102059.09;10343921;28;20034;-84
